sensor_id;sensor_type;location;lat;lon;timestamp;P1;durP1;ratioP1;P2;durP2;ratioP2
31112;SDS011;17763;48.730;9.136;2022-12-18T00:01:15;86.20;;;43.03;;
31112;SDS011;17763;48.730;9.136;2022-12-18T00:03:45;79.32;;;40.15;;
31112;SDS011;17763;48.730;9.136;2022-12-18T00:06:11;82.25;;;40.35;;
31112;SDS011;17763;48.730;9.136;2022-12-18T00:08:40;73.30;;;37.13;;
31112;SDS011;17763;48.730;9.136;2022-12-18T00:11:07;85.45;;;39.97;;
31112;SDS011;17763;48.730;9.136;2022-12-18T00:13:36;82.53;;;39.05;;
31112;SDS011;17763;48.730;9.136;2022-12-18T00:16:06;78.63;;;36.70;;
31112;SDS011;17763;48.730;9.136;2022-12-18T00:18:34;81.80;;;38.13;;
31112;SDS011;17763;48.730;9.136;2022-12-18T00:21:00;73.40;;;35.10;;
31112;SDS011;17763;48.730;9.136;2022-12-18T00:23:30;78.18;;;36.90;;
31112;SDS011;17763;48.730;9.136;2022-12-18T00:26:00;72.13;;;37.90;;
31112;SDS011;17763;48.730;9.136;2022-12-18T00:28:31;80.93;;;39.00;;
31112;SDS011;17763;48.730;9.136;2022-12-18T00:31:00;79.88;;;38.75;;
31112;SDS011;17763;48.730;9.136;2022-12-18T00:33:27;76.80;;;37.05;;
31112;SDS011;17763;48.730;9.136;2022-12-18T00:35:53;77.13;;;36.45;;
31112;SDS011;17763;48.730;9.136;2022-12-18T00:38:21;81.97;;;36.67;;
31112;SDS011;17763;48.730;9.136;2022-12-18T00:40:47;76.90;;;38.83;;
31112;SDS011;17763;48.730;9.136;2022-12-18T00:43:13;82.88;;;37.33;;
31112;SDS011;17763;48.730;9.136;2022-12-18T00:45:41;82.30;;;38.13;;
31112;SDS011;17763;48.730;9.136;2022-12-18T00:48:09;68.18;;;34.97;;
31112;SDS011;17763;48.730;9.136;2022-12-18T00:50:39;74.15;;;36.63;;
31112;SDS011;17763;48.730;9.136;2022-12-18T00:53:08;72.78;;;35.65;;
31112;SDS011;17763;48.730;9.136;2022-12-18T00:55:35;75.35;;;37.95;;
31112;SDS011;17763;48.730;9.136;2022-12-18T00:58:03;77.68;;;37.75;;
31112;SDS011;17763;48.730;9.136;2022-12-18T01:00:31;77.50;;;37.45;;
31112;SDS011;17763;48.730;9.136;2022-12-18T01:03:00;81.40;;;39.30;;
31112;SDS011;17763;48.730;9.136;2022-12-18T01:05:28;78.55;;;37.10;;
31112;SDS011;17763;48.730;9.136;2022-12-18T01:07:56;74.70;;;37.35;;
31112;SDS011;17763;48.730;9.136;2022-12-18T01:10:23;73.75;;;36.15;;
31112;SDS011;17763;48.730;9.136;2022-12-18T01:12:49;78.43;;;36.38;;
31112;SDS011;17763;48.730;9.136;2022-12-18T01:15:15;77.57;;;37.13;;
31112;SDS011;17763;48.730;9.136;2022-12-18T01:17:44;75.30;;;35.33;;
31112;SDS011;17763;48.730;9.136;2022-12-18T01:20:10;72.07;;;36.92;;
31112;SDS011;17763;48.730;9.136;2022-12-18T01:22:36;70.35;;;33.75;;
31112;SDS011;17763;48.730;9.136;2022-12-18T01:25:03;72.20;;;34.25;;
31112;SDS011;17763;48.730;9.136;2022-12-18T01:27:30;79.53;;;36.42;;
31112;SDS011;17763;48.730;9.136;2022-12-18T01:29:56;77.95;;;33.60;;
31112;SDS011;17763;48.730;9.136;2022-12-18T01:32:22;74.75;;;35.80;;
31112;SDS011;17763;48.730;9.136;2022-12-18T01:34:47;74.47;;;35.92;;
31112;SDS011;17763;48.730;9.136;2022-12-18T01:37:13;69.25;;;34.03;;
31112;SDS011;17763;48.730;9.136;2022-12-18T01:39:39;69.60;;;34.78;;
31112;SDS011;17763;48.730;9.136;2022-12-18T01:42:14;82.32;;;38.42;;
31112;SDS011;17763;48.730;9.136;2022-12-18T01:45:01;72.90;;;34.92;;
31112;SDS011;17763;48.730;9.136;2022-12-18T01:47:38;73.80;;;34.83;;
31112;SDS011;17763;48.730;9.136;2022-12-18T01:50:32;66.63;;;32.20;;
31112;SDS011;17763;48.730;9.136;2022-12-18T01:53:07;79.43;;;36.10;;
31112;SDS011;17763;48.730;9.136;2022-12-18T01:55:56;67.70;;;33.67;;
31112;SDS011;17763;48.730;9.136;2022-12-18T01:58:35;70.47;;;34.95;;
31112;SDS011;17763;48.730;9.136;2022-12-18T02:01:24;71.97;;;33.00;;
31112;SDS011;17763;48.730;9.136;2022-12-18T02:03:51;60.45;;;32.28;;
31112;SDS011;17763;48.730;9.136;2022-12-18T02:06:37;71.03;;;32.97;;
31112;SDS011;17763;48.730;9.136;2022-12-18T02:09:13;65.30;;;31.25;;
31112;SDS011;17763;48.730;9.136;2022-12-18T02:28:17;75.57;;;32.85;;
31112;SDS011;17763;48.730;9.136;2022-12-18T02:30:50;68.05;;;33.22;;
31112;SDS011;17763;48.730;9.136;2022-12-18T02:33:18;80.88;;;35.10;;
31112;SDS011;17763;48.730;9.136;2022-12-18T02:35:45;69.68;;;32.90;;
31112;SDS011;17763;48.730;9.136;2022-12-18T02:38:13;70.32;;;34.40;;
31112;SDS011;17763;48.730;9.136;2022-12-18T02:40:40;73.70;;;32.15;;
31112;SDS011;17763;48.730;9.136;2022-12-18T02:43:12;68.57;;;33.15;;
31112;SDS011;17763;48.730;9.136;2022-12-18T02:45:56;71.07;;;34.08;;
31112;SDS011;17763;48.730;9.136;2022-12-18T02:48:30;73.30;;;33.38;;
31112;SDS011;17763;48.730;9.136;2022-12-18T02:53:48;68.80;;;32.40;;
31112;SDS011;17763;48.730;9.136;2022-12-18T02:56:26;74.70;;;31.85;;
31112;SDS011;17763;48.730;9.136;2022-12-18T02:59:04;67.40;;;32.42;;
31112;SDS011;17763;48.730;9.136;2022-12-18T03:07:15;67.97;;;30.70;;
31112;SDS011;17763;48.730;9.136;2022-12-18T03:12:35;60.97;;;29.10;;
31112;SDS011;17763;48.730;9.136;2022-12-18T03:17:51;59.63;;;29.23;;
31112;SDS011;17763;48.730;9.136;2022-12-18T03:20:22;67.97;;;31.40;;
31112;SDS011;17763;48.730;9.136;2022-12-18T03:22:51;71.20;;;33.20;;
31112;SDS011;17763;48.730;9.136;2022-12-18T03:25:24;62.55;;;30.25;;
31112;SDS011;17763;48.730;9.136;2022-12-18T03:27:53;64.55;;;30.67;;
31112;SDS011;17763;48.730;9.136;2022-12-18T03:30:22;64.80;;;30.23;;
31112;SDS011;17763;48.730;9.136;2022-12-18T03:35:22;60.88;;;31.67;;
31112;SDS011;17763;48.730;9.136;2022-12-18T03:37:51;64.68;;;30.90;;
31112;SDS011;17763;48.730;9.136;2022-12-18T03:40:17;60.55;;;29.48;;
31112;SDS011;17763;48.730;9.136;2022-12-18T03:42:49;60.47;;;29.48;;
31112;SDS011;17763;48.730;9.136;2022-12-18T03:45:36;58.97;;;29.45;;
31112;SDS011;17763;48.730;9.136;2022-12-18T03:48:14;60.33;;;28.33;;
31112;SDS011;17763;48.730;9.136;2022-12-18T03:51:02;58.10;;;27.48;;
31112;SDS011;17763;48.730;9.136;2022-12-18T03:53:49;52.80;;;27.55;;
31112;SDS011;17763;48.730;9.136;2022-12-18T03:56:26;56.90;;;27.88;;
31112;SDS011;17763;48.730;9.136;2022-12-18T03:58:58;55.22;;;27.90;;
31112;SDS011;17763;48.730;9.136;2022-12-18T04:01:28;51.92;;;26.23;;
31112;SDS011;17763;48.730;9.136;2022-12-18T04:03:59;53.38;;;27.13;;
31112;SDS011;17763;48.730;9.136;2022-12-18T04:06:28;51.28;;;27.17;;
31112;SDS011;17763;48.730;9.136;2022-12-18T04:08:56;54.88;;;26.25;;
31112;SDS011;17763;48.730;9.136;2022-12-18T04:11:23;51.17;;;27.10;;
31112;SDS011;17763;48.730;9.136;2022-12-18T04:13:48;54.50;;;27.30;;
31112;SDS011;17763;48.730;9.136;2022-12-18T04:16:14;58.92;;;29.23;;
31112;SDS011;17763;48.730;9.136;2022-12-18T04:18:40;56.55;;;28.23;;
31112;SDS011;17763;48.730;9.136;2022-12-18T04:21:05;57.58;;;27.50;;
31112;SDS011;17763;48.730;9.136;2022-12-18T04:23:31;62.35;;;29.20;;
31112;SDS011;17763;48.730;9.136;2022-12-18T04:25:57;55.50;;;27.92;;
31112;SDS011;17763;48.730;9.136;2022-12-18T04:28:22;62.15;;;29.83;;
31112;SDS011;17763;48.730;9.136;2022-12-18T04:30:50;63.83;;;29.73;;
31112;SDS011;17763;48.730;9.136;2022-12-18T04:33:19;64.60;;;30.17;;
31112;SDS011;17763;48.730;9.136;2022-12-18T04:35:45;63.83;;;30.30;;
31112;SDS011;17763;48.730;9.136;2022-12-18T04:38:10;71.18;;;31.33;;
31112;SDS011;17763;48.730;9.136;2022-12-18T04:40:38;59.90;;;30.40;;
31112;SDS011;17763;48.730;9.136;2022-12-18T04:43:04;59.20;;;30.25;;
31112;SDS011;17763;48.730;9.136;2022-12-18T04:45:30;69.03;;;31.00;;
31112;SDS011;17763;48.730;9.136;2022-12-18T04:47:59;63.83;;;30.05;;
31112;SDS011;17763;48.730;9.136;2022-12-18T04:50:26;69.65;;;33.67;;
31112;SDS011;17763;48.730;9.136;2022-12-18T04:52:56;65.68;;;31.13;;
31112;SDS011;17763;48.730;9.136;2022-12-18T04:55:22;60.50;;;29.27;;
31112;SDS011;17763;48.730;9.136;2022-12-18T04:57:50;66.45;;;33.20;;
31112;SDS011;17763;48.730;9.136;2022-12-18T05:00:21;56.00;;;29.95;;
31112;SDS011;17763;48.730;9.136;2022-12-18T05:02:47;65.28;;;30.48;;
31112;SDS011;17763;48.730;9.136;2022-12-18T05:05:13;73.03;;;32.55;;
31112;SDS011;17763;48.730;9.136;2022-12-18T05:07:39;71.28;;;33.30;;
31112;SDS011;17763;48.730;9.136;2022-12-18T05:10:05;62.42;;;28.52;;
31112;SDS011;17763;48.730;9.136;2022-12-18T05:15:22;66.90;;;28.02;;
31112;SDS011;17763;48.730;9.136;2022-12-18T05:17:49;66.95;;;29.70;;
31112;SDS011;17763;48.730;9.136;2022-12-18T05:20:14;62.53;;;29.52;;
31112;SDS011;17763;48.730;9.136;2022-12-18T05:22:43;64.93;;;30.50;;
31112;SDS011;17763;48.730;9.136;2022-12-18T05:25:08;58.58;;;27.95;;
31112;SDS011;17763;48.730;9.136;2022-12-18T05:27:34;65.93;;;30.70;;
31112;SDS011;17763;48.730;9.136;2022-12-18T05:30:02;62.53;;;30.38;;
31112;SDS011;17763;48.730;9.136;2022-12-18T05:32:28;68.03;;;31.17;;
31112;SDS011;17763;48.730;9.136;2022-12-18T05:34:54;67.72;;;28.98;;
31112;SDS011;17763;48.730;9.136;2022-12-18T05:37:19;64.88;;;29.08;;
31112;SDS011;17763;48.730;9.136;2022-12-18T05:39:45;65.43;;;31.02;;
31112;SDS011;17763;48.730;9.136;2022-12-18T05:42:11;62.88;;;27.80;;
31112;SDS011;17763;48.730;9.136;2022-12-18T05:44:37;60.17;;;29.85;;
31112;SDS011;17763;48.730;9.136;2022-12-18T05:47:02;61.58;;;29.08;;
31112;SDS011;17763;48.730;9.136;2022-12-18T05:49:29;61.13;;;29.88;;
31112;SDS011;17763;48.730;9.136;2022-12-18T05:51:54;63.35;;;29.30;;
31112;SDS011;17763;48.730;9.136;2022-12-18T05:54:20;60.85;;;29.65;;
31112;SDS011;17763;48.730;9.136;2022-12-18T05:56:46;61.53;;;29.85;;
31112;SDS011;17763;48.730;9.136;2022-12-18T05:59:12;61.50;;;27.65;;
31112;SDS011;17763;48.730;9.136;2022-12-18T06:01:38;64.95;;;30.45;;
31112;SDS011;17763;48.730;9.136;2022-12-18T06:04:03;65.13;;;29.58;;
31112;SDS011;17763;48.730;9.136;2022-12-18T06:06:32;66.63;;;30.27;;
31112;SDS011;17763;48.730;9.136;2022-12-18T06:08:57;63.67;;;27.60;;
31112;SDS011;17763;48.730;9.136;2022-12-18T06:11:24;63.15;;;30.05;;
31112;SDS011;17763;48.730;9.136;2022-12-18T06:13:51;65.40;;;29.25;;
31112;SDS011;17763;48.730;9.136;2022-12-18T06:16:20;57.33;;;27.67;;
31112;SDS011;17763;48.730;9.136;2022-12-18T06:18:46;58.38;;;28.20;;
31112;SDS011;17763;48.730;9.136;2022-12-18T06:21:12;60.60;;;29.42;;
31112;SDS011;17763;48.730;9.136;2022-12-18T06:23:42;68.40;;;30.65;;
31112;SDS011;17763;48.730;9.136;2022-12-18T06:26:10;63.42;;;29.65;;
31112;SDS011;17763;48.730;9.136;2022-12-18T06:28:39;64.35;;;28.67;;
31112;SDS011;17763;48.730;9.136;2022-12-18T06:31:04;56.67;;;27.48;;
31112;SDS011;17763;48.730;9.136;2022-12-18T06:33:31;58.08;;;28.30;;
31112;SDS011;17763;48.730;9.136;2022-12-18T06:36:01;63.28;;;30.52;;
31112;SDS011;17763;48.730;9.136;2022-12-18T06:38:38;70.28;;;31.15;;
31112;SDS011;17763;48.730;9.136;2022-12-18T06:41:06;61.53;;;30.23;;
31112;SDS011;17763;48.730;9.136;2022-12-18T06:43:32;63.03;;;29.42;;
31112;SDS011;17763;48.730;9.136;2022-12-18T06:46:02;61.10;;;28.17;;
31112;SDS011;17763;48.730;9.136;2022-12-18T06:48:29;62.25;;;28.77;;
31112;SDS011;17763;48.730;9.136;2022-12-18T06:50:57;63.47;;;28.85;;
31112;SDS011;17763;48.730;9.136;2022-12-18T06:53:25;59.30;;;28.13;;
31112;SDS011;17763;48.730;9.136;2022-12-18T06:55:58;62.80;;;28.80;;
31112;SDS011;17763;48.730;9.136;2022-12-18T06:58:35;56.45;;;28.75;;
31112;SDS011;17763;48.730;9.136;2022-12-18T07:01:02;58.95;;;27.60;;
31112;SDS011;17763;48.730;9.136;2022-12-18T07:03:31;70.60;;;32.08;;
31112;SDS011;17763;48.730;9.136;2022-12-18T07:06:02;59.20;;;29.20;;
31112;SDS011;17763;48.730;9.136;2022-12-18T07:08:29;61.33;;;29.15;;
31112;SDS011;17763;48.730;9.136;2022-12-18T07:10:57;67.60;;;30.70;;
31112;SDS011;17763;48.730;9.136;2022-12-18T07:13:30;66.25;;;30.98;;
31112;SDS011;17763;48.730;9.136;2022-12-18T07:16:02;57.58;;;28.38;;
31112;SDS011;17763;48.730;9.136;2022-12-18T07:18:31;59.33;;;28.33;;
31112;SDS011;17763;48.730;9.136;2022-12-18T07:20:57;71.45;;;28.25;;
31112;SDS011;17763;48.730;9.136;2022-12-18T07:23:23;63.22;;;30.58;;
31112;SDS011;17763;48.730;9.136;2022-12-18T07:25:51;61.38;;;28.67;;
31112;SDS011;17763;48.730;9.136;2022-12-18T07:28:16;59.90;;;28.27;;
31112;SDS011;17763;48.730;9.136;2022-12-18T07:30:42;60.85;;;28.92;;
31112;SDS011;17763;48.730;9.136;2022-12-18T07:33:10;62.35;;;30.00;;
31112;SDS011;17763;48.730;9.136;2022-12-18T07:35:35;62.35;;;29.20;;
31112;SDS011;17763;48.730;9.136;2022-12-18T07:38:01;55.58;;;27.67;;
31112;SDS011;17763;48.730;9.136;2022-12-18T07:40:27;62.28;;;28.38;;
31112;SDS011;17763;48.730;9.136;2022-12-18T07:42:52;59.00;;;28.50;;
31112;SDS011;17763;48.730;9.136;2022-12-18T07:45:18;51.75;;;24.17;;
31112;SDS011;17763;48.730;9.136;2022-12-18T07:47:46;45.25;;;23.48;;
31112;SDS011;17763;48.730;9.136;2022-12-18T07:50:11;63.83;;;27.73;;
31112;SDS011;17763;48.730;9.136;2022-12-18T07:52:39;48.13;;;23.15;;
31112;SDS011;17763;48.730;9.136;2022-12-18T07:55:05;52.50;;;26.15;;
31112;SDS011;17763;48.730;9.136;2022-12-18T07:57:33;49.00;;;24.98;;
31112;SDS011;17763;48.730;9.136;2022-12-18T07:59:59;51.30;;;23.10;;
31112;SDS011;17763;48.730;9.136;2022-12-18T08:02:24;50.42;;;24.58;;
31112;SDS011;17763;48.730;9.136;2022-12-18T08:04:52;48.00;;;24.02;;
31112;SDS011;17763;48.730;9.136;2022-12-18T08:07:18;47.35;;;23.42;;
31112;SDS011;17763;48.730;9.136;2022-12-18T08:09:47;48.25;;;24.77;;
31112;SDS011;17763;48.730;9.136;2022-12-18T08:12:12;55.38;;;23.95;;
31112;SDS011;17763;48.730;9.136;2022-12-18T08:14:38;53.58;;;23.63;;
31112;SDS011;17763;48.730;9.136;2022-12-18T08:17:03;57.78;;;25.20;;
31112;SDS011;17763;48.730;9.136;2022-12-18T08:19:31;52.85;;;26.80;;
31112;SDS011;17763;48.730;9.136;2022-12-18T08:21:57;45.97;;;22.95;;
31112;SDS011;17763;48.730;9.136;2022-12-18T08:24:22;55.10;;;24.83;;
31112;SDS011;17763;48.730;9.136;2022-12-18T08:26:48;55.58;;;25.38;;
31112;SDS011;17763;48.730;9.136;2022-12-18T08:29:14;56.35;;;26.00;;
31112;SDS011;17763;48.730;9.136;2022-12-18T08:31:43;52.15;;;26.33;;
31112;SDS011;17763;48.730;9.136;2022-12-18T08:34:08;59.38;;;27.17;;
31112;SDS011;17763;48.730;9.136;2022-12-18T08:36:37;56.53;;;28.83;;
31112;SDS011;17763;48.730;9.136;2022-12-18T08:39:02;52.50;;;27.58;;
31112;SDS011;17763;48.730;9.136;2022-12-18T08:41:28;58.15;;;28.55;;
31112;SDS011;17763;48.730;9.136;2022-12-18T08:43:53;51.13;;;25.90;;
31112;SDS011;17763;48.730;9.136;2022-12-18T08:46:38;57.92;;;28.02;;
31112;SDS011;17763;48.730;9.136;2022-12-18T08:49:06;57.95;;;28.50;;
31112;SDS011;17763;48.730;9.136;2022-12-18T08:51:32;61.28;;;30.23;;
31112;SDS011;17763;48.730;9.136;2022-12-18T08:53:59;66.13;;;29.75;;
31112;SDS011;17763;48.730;9.136;2022-12-18T08:56:25;61.78;;;30.25;;
31112;SDS011;17763;48.730;9.136;2022-12-18T08:58:53;61.92;;;30.10;;
31112;SDS011;17763;48.730;9.136;2022-12-18T09:01:19;55.38;;;30.02;;
31112;SDS011;17763;48.730;9.136;2022-12-18T09:03:46;57.42;;;28.80;;
31112;SDS011;17763;48.730;9.136;2022-12-18T09:06:14;61.20;;;29.88;;
31112;SDS011;17763;48.730;9.136;2022-12-18T09:08:44;62.22;;;28.13;;
31112;SDS011;17763;48.730;9.136;2022-12-18T09:11:19;63.13;;;30.10;;
31112;SDS011;17763;48.730;9.136;2022-12-18T09:13:45;63.95;;;30.17;;
31112;SDS011;17763;48.730;9.136;2022-12-18T09:16:13;66.25;;;32.00;;
31112;SDS011;17763;48.730;9.136;2022-12-18T09:18:39;59.17;;;28.95;;
31112;SDS011;17763;48.730;9.136;2022-12-18T09:21:12;60.38;;;29.67;;
31112;SDS011;17763;48.730;9.136;2022-12-18T09:23:40;63.67;;;31.27;;
31112;SDS011;17763;48.730;9.136;2022-12-18T09:26:06;69.88;;;33.47;;
31112;SDS011;17763;48.730;9.136;2022-12-18T09:28:32;63.50;;;31.83;;
31112;SDS011;17763;48.730;9.136;2022-12-18T09:30:57;68.00;;;33.28;;
31112;SDS011;17763;48.730;9.136;2022-12-18T09:33:23;60.70;;;30.80;;
31112;SDS011;17763;48.730;9.136;2022-12-18T09:35:51;64.53;;;31.75;;
31112;SDS011;17763;48.730;9.136;2022-12-18T09:38:17;63.72;;;31.17;;
31112;SDS011;17763;48.730;9.136;2022-12-18T09:40:49;61.08;;;32.30;;
31112;SDS011;17763;48.730;9.136;2022-12-18T09:43:18;62.80;;;31.02;;
31112;SDS011;17763;48.730;9.136;2022-12-18T09:45:53;61.40;;;30.40;;
31112;SDS011;17763;48.730;9.136;2022-12-18T09:48:35;64.20;;;31.40;;
31112;SDS011;17763;48.730;9.136;2022-12-18T09:51:10;67.05;;;31.00;;
31112;SDS011;17763;48.730;9.136;2022-12-18T09:53:44;64.00;;;32.40;;
31112;SDS011;17763;48.730;9.136;2022-12-18T09:56:16;61.38;;;30.33;;
31112;SDS011;17763;48.730;9.136;2022-12-18T09:59:02;64.00;;;30.42;;
31112;SDS011;17763;48.730;9.136;2022-12-18T10:01:30;63.58;;;29.50;;
31112;SDS011;17763;48.730;9.136;2022-12-18T10:03:59;66.45;;;32.08;;
31112;SDS011;17763;48.730;9.136;2022-12-18T10:06:29;70.53;;;32.50;;
31112;SDS011;17763;48.730;9.136;2022-12-18T10:12:12;66.38;;;30.48;;
31112;SDS011;17763;48.730;9.136;2022-12-18T10:20:13;68.93;;;30.73;;
31112;SDS011;17763;48.730;9.136;2022-12-18T10:28:15;64.88;;;29.83;;
31112;SDS011;17763;48.730;9.136;2022-12-18T10:30:42;63.70;;;29.80;;
31112;SDS011;17763;48.730;9.136;2022-12-18T10:33:13;69.50;;;32.63;;
31112;SDS011;17763;48.730;9.136;2022-12-18T10:35:42;63.45;;;31.10;;
31112;SDS011;17763;48.730;9.136;2022-12-18T10:40:48;64.88;;;29.77;;
31112;SDS011;17763;48.730;9.136;2022-12-18T10:43:27;59.65;;;28.63;;
31112;SDS011;17763;48.730;9.136;2022-12-18T10:45:58;62.33;;;30.98;;
31112;SDS011;17763;48.730;9.136;2022-12-18T10:48:25;56.60;;;27.15;;
31112;SDS011;17763;48.730;9.136;2022-12-18T10:50:52;55.97;;;27.15;;
31112;SDS011;17763;48.730;9.136;2022-12-18T10:53:23;63.75;;;26.55;;
31112;SDS011;17763;48.730;9.136;2022-12-18T10:55:53;58.40;;;28.23;;
31112;SDS011;17763;48.730;9.136;2022-12-18T11:03:30;59.05;;;26.95;;
31112;SDS011;17763;48.730;9.136;2022-12-18T11:08:43;55.38;;;25.23;;
31112;SDS011;17763;48.730;9.136;2022-12-18T11:11:22;59.35;;;27.67;;
31112;SDS011;17763;48.730;9.136;2022-12-18T11:16:24;65.68;;;29.98;;
31112;SDS011;17763;48.730;9.136;2022-12-18T11:18:51;63.33;;;27.98;;
31112;SDS011;17763;48.730;9.136;2022-12-18T11:21:17;59.92;;;28.05;;
31112;SDS011;17763;48.730;9.136;2022-12-18T11:23:52;64.95;;;26.80;;
31112;SDS011;17763;48.730;9.136;2022-12-18T11:26:20;61.80;;;27.15;;
31112;SDS011;17763;48.730;9.136;2022-12-18T11:29:09;57.60;;;25.85;;
31112;SDS011;17763;48.730;9.136;2022-12-18T11:31:40;58.63;;;29.33;;
31112;SDS011;17763;48.730;9.136;2022-12-18T11:36:39;62.65;;;27.85;;
31112;SDS011;17763;48.730;9.136;2022-12-18T11:42:35;59.25;;;27.23;;
31112;SDS011;17763;48.730;9.136;2022-12-18T11:44:59;64.50;;;29.58;;
31112;SDS011;17763;48.730;9.136;2022-12-18T11:48:00;62.17;;;29.05;;
31112;SDS011;17763;48.730;9.136;2022-12-18T11:50:31;63.25;;;30.70;;
31112;SDS011;17763;48.730;9.136;2022-12-18T11:52:59;60.40;;;28.90;;
31112;SDS011;17763;48.730;9.136;2022-12-18T12:00:50;60.70;;;28.85;;
31112;SDS011;17763;48.730;9.136;2022-12-18T12:06:23;61.40;;;27.23;;
31112;SDS011;17763;48.730;9.136;2022-12-18T12:09:02;63.22;;;31.73;;
31112;SDS011;17763;48.730;9.136;2022-12-18T12:17:37;71.32;;;35.67;;
31112;SDS011;17763;48.730;9.136;2022-12-18T12:28:03;73.57;;;35.65;;
31112;SDS011;17763;48.730;9.136;2022-12-18T12:38:45;61.53;;;32.30;;
31112;SDS011;17763;48.730;9.136;2022-12-18T12:41:17;68.03;;;33.55;;
31112;SDS011;17763;48.730;9.136;2022-12-18T12:44:06;66.60;;;33.38;;
31112;SDS011;17763;48.730;9.136;2022-12-18T12:46:35;64.35;;;33.58;;
31112;SDS011;17763;48.730;9.136;2022-12-18T12:49:05;87.82;;;41.08;;
31112;SDS011;17763;48.730;9.136;2022-12-18T12:51:44;71.68;;;34.20;;
31112;SDS011;17763;48.730;9.136;2022-12-18T12:54:18;64.18;;;33.83;;
31112;SDS011;17763;48.730;9.136;2022-12-18T12:57:04;73.10;;;34.60;;
31112;SDS011;17763;48.730;9.136;2022-12-18T12:59:57;67.80;;;32.60;;
31112;SDS011;17763;48.730;9.136;2022-12-18T13:08:07;63.38;;;29.88;;
31112;SDS011;17763;48.730;9.136;2022-12-18T13:10:39;62.28;;;30.30;;
31112;SDS011;17763;48.730;9.136;2022-12-18T13:13:11;62.45;;;30.35;;
31112;SDS011;17763;48.730;9.136;2022-12-18T13:20:44;63.10;;;30.92;;
31112;SDS011;17763;48.730;9.136;2022-12-18T13:23:45;62.53;;;29.63;;
31112;SDS011;17763;48.730;9.136;2022-12-18T13:36:49;74.85;;;34.65;;
31112;SDS011;17763;48.730;9.136;2022-12-18T13:41:46;65.05;;;30.20;;
31112;SDS011;17763;48.730;9.136;2022-12-18T13:44:33;62.83;;;27.95;;
31112;SDS011;17763;48.730;9.136;2022-12-18T13:47:24;50.60;;;26.00;;
31112;SDS011;17763;48.730;9.136;2022-12-18T13:49:56;54.85;;;28.42;;
31112;SDS011;17763;48.730;9.136;2022-12-18T13:52:23;56.97;;;27.27;;
31112;SDS011;17763;48.730;9.136;2022-12-18T13:54:55;56.10;;;26.30;;
31112;SDS011;17763;48.730;9.136;2022-12-18T13:59:58;56.47;;;27.05;;
31112;SDS011;17763;48.730;9.136;2022-12-18T14:02:44;57.00;;;27.08;;
31112;SDS011;17763;48.730;9.136;2022-12-18T14:05:21;54.65;;;25.65;;
31112;SDS011;17763;48.730;9.136;2022-12-18T14:08:11;56.38;;;27.95;;
31112;SDS011;17763;48.730;9.136;2022-12-18T14:10:45;61.80;;;32.38;;
31112;SDS011;17763;48.730;9.136;2022-12-18T14:13:19;58.60;;;28.50;;
31112;SDS011;17763;48.730;9.136;2022-12-18T14:15:52;61.35;;;27.15;;
31112;SDS011;17763;48.730;9.136;2022-12-18T14:18:20;59.45;;;28.15;;
31112;SDS011;17763;48.730;9.136;2022-12-18T14:21:05;63.97;;;29.08;;
31112;SDS011;17763;48.730;9.136;2022-12-18T14:23:40;60.55;;;29.20;;
31112;SDS011;17763;48.730;9.136;2022-12-18T14:26:26;58.65;;;28.05;;
31112;SDS011;17763;48.730;9.136;2022-12-18T14:28:58;58.35;;;27.38;;
31112;SDS011;17763;48.730;9.136;2022-12-18T14:31:42;56.65;;;28.42;;
31112;SDS011;17763;48.730;9.136;2022-12-18T14:34:14;67.50;;;31.23;;
31112;SDS011;17763;48.730;9.136;2022-12-18T14:36:40;69.25;;;32.13;;
31112;SDS011;17763;48.730;9.136;2022-12-18T14:39:12;63.50;;;30.20;;
31112;SDS011;17763;48.730;9.136;2022-12-18T14:41:42;64.38;;;31.17;;
31112;SDS011;17763;48.730;9.136;2022-12-18T14:44:11;58.75;;;29.33;;
31112;SDS011;17763;48.730;9.136;2022-12-18T14:46:47;63.65;;;28.52;;
31112;SDS011;17763;48.730;9.136;2022-12-18T14:51:49;69.72;;;31.58;;
31112;SDS011;17763;48.730;9.136;2022-12-18T14:54:20;61.30;;;28.25;;
31112;SDS011;17763;48.730;9.136;2022-12-18T14:56:49;59.22;;;28.42;;
31112;SDS011;17763;48.730;9.136;2022-12-18T14:59:36;58.70;;;28.80;;
31112;SDS011;17763;48.730;9.136;2022-12-18T15:04:48;57.95;;;28.25;;
31112;SDS011;17763;48.730;9.136;2022-12-18T15:07:25;57.95;;;28.98;;
31112;SDS011;17763;48.730;9.136;2022-12-18T15:12:28;57.92;;;29.05;;
31112;SDS011;17763;48.730;9.136;2022-12-18T15:15:43;64.38;;;30.33;;
31112;SDS011;17763;48.730;9.136;2022-12-18T15:18:04;58.13;;;27.83;;
31112;SDS011;17763;48.730;9.136;2022-12-18T15:25:45;65.57;;;30.67;;
31112;SDS011;17763;48.730;9.136;2022-12-18T15:28:57;65.25;;;30.25;;
31112;SDS011;17763;48.730;9.136;2022-12-18T15:34:13;63.42;;;31.02;;
31112;SDS011;17763;48.730;9.136;2022-12-18T15:36:45;73.95;;;32.50;;
31112;SDS011;17763;48.730;9.136;2022-12-18T15:39:11;69.32;;;32.53;;
31112;SDS011;17763;48.730;9.136;2022-12-18T15:41:38;67.18;;;32.33;;
31112;SDS011;17763;48.730;9.136;2022-12-18T15:44:20;64.30;;;30.70;;
31112;SDS011;17763;48.730;9.136;2022-12-18T15:46:48;68.90;;;31.02;;
31112;SDS011;17763;48.730;9.136;2022-12-18T15:49:14;68.63;;;31.27;;
31112;SDS011;17763;48.730;9.136;2022-12-18T15:51:40;65.65;;;33.55;;
31112;SDS011;17763;48.730;9.136;2022-12-18T15:54:06;71.28;;;34.97;;
31112;SDS011;17763;48.730;9.136;2022-12-18T15:56:37;70.07;;;32.55;;
31112;SDS011;17763;48.730;9.136;2022-12-18T15:59:22;65.70;;;32.70;;
31112;SDS011;17763;48.730;9.136;2022-12-18T16:01:48;68.18;;;32.70;;
31112;SDS011;17763;48.730;9.136;2022-12-18T16:04:17;72.72;;;35.85;;
31112;SDS011;17763;48.730;9.136;2022-12-18T16:06:45;64.97;;;32.38;;
31112;SDS011;17763;48.730;9.136;2022-12-18T16:09:11;64.75;;;33.17;;
31112;SDS011;17763;48.730;9.136;2022-12-18T16:11:36;71.80;;;35.00;;
31112;SDS011;17763;48.730;9.136;2022-12-18T16:16:45;73.32;;;35.05;;
31112;SDS011;17763;48.730;9.136;2022-12-18T16:19:16;69.95;;;33.75;;
31112;SDS011;17763;48.730;9.136;2022-12-18T16:21:42;75.45;;;35.97;;
31112;SDS011;17763;48.730;9.136;2022-12-18T16:24:15;75.63;;;35.35;;
31112;SDS011;17763;48.730;9.136;2022-12-18T16:26:51;72.63;;;33.85;;
31112;SDS011;17763;48.730;9.136;2022-12-18T16:29:17;67.70;;;33.83;;
31112;SDS011;17763;48.730;9.136;2022-12-18T16:31:44;68.35;;;36.30;;
31112;SDS011;17763;48.730;9.136;2022-12-18T16:36:35;72.82;;;36.15;;
31112;SDS011;17763;48.730;9.136;2022-12-18T16:39:04;69.55;;;34.25;;
31112;SDS011;17763;48.730;9.136;2022-12-18T16:41:29;69.18;;;33.00;;
31112;SDS011;17763;48.730;9.136;2022-12-18T16:43:59;71.05;;;34.22;;
31112;SDS011;17763;48.730;9.136;2022-12-18T16:46:24;65.38;;;32.75;;
31112;SDS011;17763;48.730;9.136;2022-12-18T16:48:50;68.90;;;31.58;;
31112;SDS011;17763;48.730;9.136;2022-12-18T16:51:16;64.07;;;32.92;;
31112;SDS011;17763;48.730;9.136;2022-12-18T16:53:42;63.63;;;31.20;;
31112;SDS011;17763;48.730;9.136;2022-12-18T16:56:07;69.70;;;32.35;;
31112;SDS011;17763;48.730;9.136;2022-12-18T16:58:33;65.25;;;31.17;;
31112;SDS011;17763;48.730;9.136;2022-12-18T17:00:59;66.57;;;31.80;;
31112;SDS011;17763;48.730;9.136;2022-12-18T17:03:24;60.03;;;31.00;;
31112;SDS011;17763;48.730;9.136;2022-12-18T17:05:50;64.03;;;30.55;;